sensor_id;sensor_type;location;lat;lon;timestamp;P1;durP1;ratioP1;P2;durP2;ratioP2
7432;SDS011;32233;49.500;7.764;2023-05-10T00:00:40;3.13;;;2.90;;
7432;SDS011;32233;49.500;7.764;2023-05-10T00:03:07;3.47;;;3.10;;
7432;SDS011;32233;49.500;7.764;2023-05-10T00:05:34;4.33;;;3.07;;
7432;SDS011;32233;49.500;7.764;2023-05-10T00:08:00;4.57;;;3.00;;
7432;SDS011;32233;49.500;7.764;2023-05-10T00:10:27;3.23;;;2.90;;
7432;SDS011;32233;49.500;7.764;2023-05-10T00:12:53;3.13;;;2.87;;
7432;SDS011;32233;49.500;7.764;2023-05-10T00:15:20;3.50;;;2.93;;
7432;SDS011;32233;49.500;7.764;2023-05-10T00:17:47;2.73;;;2.53;;
7432;SDS011;32233;49.500;7.764;2023-05-10T00:20:13;4.23;;;3.17;;
7432;SDS011;32233;49.500;7.764;2023-05-10T00:22:40;2.93;;;2.73;;
7432;SDS011;32233;49.500;7.764;2023-05-10T00:25:07;2.93;;;2.73;;
7432;SDS011;32233;49.500;7.764;2023-05-10T00:27:34;3.23;;;2.93;;
7432;SDS011;32233;49.500;7.764;2023-05-10T00:30:00;2.83;;;2.63;;
7432;SDS011;32233;49.500;7.764;2023-05-10T00:32:28;3.70;;;3.10;;
7432;SDS011;32233;49.500;7.764;2023-05-10T00:34:54;3.47;;;3.17;;
7432;SDS011;32233;49.500;7.764;2023-05-10T00:37:21;3.13;;;2.93;;
7432;SDS011;32233;49.500;7.764;2023-05-10T00:39:48;3.30;;;3.10;;
7432;SDS011;32233;49.500;7.764;2023-05-10T00:42:14;3.87;;;3.43;;
7432;SDS011;32233;49.500;7.764;2023-05-10T00:44:41;3.70;;;3.40;;
7432;SDS011;32233;49.500;7.764;2023-05-10T00:47:08;3.93;;;3.50;;
7432;SDS011;32233;49.500;7.764;2023-05-10T00:49:35;3.83;;;3.47;;
7432;SDS011;32233;49.500;7.764;2023-05-10T00:52:02;4.07;;;3.77;;
7432;SDS011;32233;49.500;7.764;2023-05-10T00:54:29;4.47;;;4.03;;
7432;SDS011;32233;49.500;7.764;2023-05-10T00:56:56;5.17;;;4.10;;
7432;SDS011;32233;49.500;7.764;2023-05-10T00:59:23;4.20;;;3.80;;
7432;SDS011;32233;49.500;7.764;2023-05-10T01:01:50;3.90;;;3.67;;
7432;SDS011;32233;49.500;7.764;2023-05-10T01:04:17;4.90;;;4.07;;
7432;SDS011;32233;49.500;7.764;2023-05-10T01:06:46;4.90;;;4.00;;
7432;SDS011;32233;49.500;7.764;2023-05-10T01:09:12;4.20;;;3.90;;
7432;SDS011;32233;49.500;7.764;2023-05-10T01:11:39;4.30;;;4.00;;
7432;SDS011;32233;49.500;7.764;2023-05-10T01:14:06;4.50;;;4.20;;
7432;SDS011;32233;49.500;7.764;2023-05-10T01:16:34;4.60;;;4.20;;
7432;SDS011;32233;49.500;7.764;2023-05-10T01:19:08;6.27;;;4.43;;
7432;SDS011;32233;49.500;7.764;2023-05-10T01:21:48;4.10;;;3.77;;
7432;SDS011;32233;49.500;7.764;2023-05-10T01:24:27;4.47;;;4.07;;
7432;SDS011;32233;49.500;7.764;2023-05-10T01:32:11;5.10;;;4.10;;
7432;SDS011;32233;49.500;7.764;2023-05-10T01:34:48;4.33;;;3.57;;
7432;SDS011;32233;49.500;7.764;2023-05-10T01:37:26;4.43;;;4.13;;
7432;SDS011;32233;49.500;7.764;2023-05-10T01:40:01;4.37;;;4.03;;
7432;SDS011;32233;49.500;7.764;2023-05-10T01:42:46;4.30;;;4.00;;
7432;SDS011;32233;49.500;7.764;2023-05-10T01:45:19;5.67;;;4.13;;
7432;SDS011;32233;49.500;7.764;2023-05-10T01:47:54;6.87;;;5.00;;
7432;SDS011;32233;49.500;7.764;2023-05-10T01:50:29;5.87;;;4.70;;
7432;SDS011;32233;49.500;7.764;2023-05-10T01:52:57;5.27;;;4.87;;
7432;SDS011;32233;49.500;7.764;2023-05-10T01:55:27;5.13;;;4.67;;
7432;SDS011;32233;49.500;7.764;2023-05-10T01:58:01;4.97;;;4.60;;
7432;SDS011;32233;49.500;7.764;2023-05-10T02:00:32;5.63;;;5.13;;
7432;SDS011;32233;49.500;7.764;2023-05-10T02:03:01;5.17;;;4.77;;
7432;SDS011;32233;49.500;7.764;2023-05-10T02:05:31;5.47;;;4.73;;
7432;SDS011;32233;49.500;7.764;2023-05-10T02:07:59;5.53;;;5.03;;
7432;SDS011;32233;49.500;7.764;2023-05-10T02:10:28;5.67;;;5.10;;
7432;SDS011;32233;49.500;7.764;2023-05-10T02:12:58;5.93;;;5.43;;
7432;SDS011;32233;49.500;7.764;2023-05-10T02:15:26;5.67;;;5.17;;
7432;SDS011;32233;49.500;7.764;2023-05-10T02:17:56;5.97;;;5.33;;
7432;SDS011;32233;49.500;7.764;2023-05-10T02:20:26;6.30;;;5.03;;
7432;SDS011;32233;49.500;7.764;2023-05-10T02:22:54;5.43;;;5.00;;
7432;SDS011;32233;49.500;7.764;2023-05-10T02:25:22;6.43;;;4.97;;
7432;SDS011;32233;49.500;7.764;2023-05-10T02:27:49;5.63;;;5.13;;
7432;SDS011;32233;49.500;7.764;2023-05-10T02:30:20;5.40;;;4.90;;
7432;SDS011;32233;49.500;7.764;2023-05-10T02:32:49;5.20;;;4.80;;
7432;SDS011;32233;49.500;7.764;2023-05-10T02:35:17;5.43;;;4.93;;
7432;SDS011;32233;49.500;7.764;2023-05-10T02:37:45;6.70;;;4.90;;
7432;SDS011;32233;49.500;7.764;2023-05-10T02:40:13;5.27;;;4.73;;
7432;SDS011;32233;49.500;7.764;2023-05-10T02:42:42;6.27;;;5.27;;
7432;SDS011;32233;49.500;7.764;2023-05-10T02:45:11;6.70;;;5.43;;
7432;SDS011;32233;49.500;7.764;2023-05-10T02:47:41;6.30;;;5.70;;
7432;SDS011;32233;49.500;7.764;2023-05-10T02:50:08;6.33;;;5.57;;
7432;SDS011;32233;49.500;7.764;2023-05-10T02:52:46;6.80;;;5.37;;
7432;SDS011;32233;49.500;7.764;2023-05-10T02:55:16;6.20;;;5.07;;
7432;SDS011;32233;49.500;7.764;2023-05-10T02:57:48;8.37;;;5.90;;
7432;SDS011;32233;49.500;7.764;2023-05-10T03:00:24;6.67;;;5.97;;
7432;SDS011;32233;49.500;7.764;2023-05-10T03:02:52;5.47;;;5.07;;
7432;SDS011;32233;49.500;7.764;2023-05-10T03:05:19;6.87;;;6.03;;
7432;SDS011;32233;49.500;7.764;2023-05-10T03:07:46;6.77;;;6.27;;
7432;SDS011;32233;49.500;7.764;2023-05-10T03:10:13;7.80;;;6.40;;
7432;SDS011;32233;49.500;7.764;2023-05-10T03:18:44;6.83;;;6.13;;
7432;SDS011;32233;49.500;7.764;2023-05-10T03:21:16;6.30;;;5.70;;
7432;SDS011;32233;49.500;7.764;2023-05-10T03:23:47;7.27;;;6.37;;
7432;SDS011;32233;49.500;7.764;2023-05-10T03:26:24;6.60;;;5.83;;
7432;SDS011;32233;49.500;7.764;2023-05-10T03:28:59;7.23;;;6.00;;
7432;SDS011;32233;49.500;7.764;2023-05-10T03:31:27;6.67;;;5.93;;
7432;SDS011;32233;49.500;7.764;2023-05-10T03:33:54;7.17;;;6.43;;
7432;SDS011;32233;49.500;7.764;2023-05-10T03:36:24;7.20;;;5.93;;
7432;SDS011;32233;49.500;7.764;2023-05-10T03:38:51;7.43;;;6.60;;
7432;SDS011;32233;49.500;7.764;2023-05-10T03:41:17;9.20;;;6.77;;
7432;SDS011;32233;49.500;7.764;2023-05-10T03:43:44;8.73;;;6.90;;
7432;SDS011;32233;49.500;7.764;2023-05-10T03:46:10;7.87;;;7.17;;
7432;SDS011;32233;49.500;7.764;2023-05-10T03:48:37;8.10;;;7.30;;
7432;SDS011;32233;49.500;7.764;2023-05-10T03:51:04;8.23;;;7.13;;
7432;SDS011;32233;49.500;7.764;2023-05-10T03:53:30;6.97;;;6.03;;
7432;SDS011;32233;49.500;7.764;2023-05-10T03:55:57;9.20;;;6.80;;
7432;SDS011;32233;49.500;7.764;2023-05-10T03:58:23;8.03;;;7.23;;
7432;SDS011;32233;49.500;7.764;2023-05-10T04:00:50;9.63;;;7.77;;
7432;SDS011;32233;49.500;7.764;2023-05-10T04:03:18;8.50;;;7.70;;
7432;SDS011;32233;49.500;7.764;2023-05-10T04:05:44;8.90;;;8.00;;
7432;SDS011;32233;49.500;7.764;2023-05-10T04:08:11;8.13;;;7.33;;
7432;SDS011;32233;49.500;7.764;2023-05-10T04:10:37;8.73;;;7.77;;
7432;SDS011;32233;49.500;7.764;2023-05-10T04:13:04;8.90;;;7.53;;
7432;SDS011;32233;49.500;7.764;2023-05-10T04:15:30;12.40;;;7.80;;
7432;SDS011;32233;49.500;7.764;2023-05-10T04:17:57;10.60;;;8.33;;
7432;SDS011;32233;49.500;7.764;2023-05-10T04:20:24;9.17;;;8.03;;
7432;SDS011;32233;49.500;7.764;2023-05-10T04:22:50;9.13;;;8.17;;
7432;SDS011;32233;49.500;7.764;2023-05-10T04:25:17;9.17;;;8.27;;
7432;SDS011;32233;49.500;7.764;2023-05-10T04:27:43;9.90;;;7.60;;
7432;SDS011;32233;49.500;7.764;2023-05-10T04:30:10;8.90;;;7.57;;
7432;SDS011;32233;49.500;7.764;2023-05-10T04:32:37;10.23;;;7.80;;
7432;SDS011;32233;49.500;7.764;2023-05-10T04:35:03;8.47;;;7.53;;
7432;SDS011;32233;49.500;7.764;2023-05-10T04:37:30;7.63;;;6.70;;
7432;SDS011;32233;49.500;7.764;2023-05-10T04:39:57;8.20;;;7.37;;
7432;SDS011;32233;49.500;7.764;2023-05-10T04:42:26;7.43;;;6.60;;
7432;SDS011;32233;49.500;7.764;2023-05-10T04:44:52;7.53;;;6.80;;
7432;SDS011;32233;49.500;7.764;2023-05-10T04:47:19;6.97;;;6.27;;
7432;SDS011;32233;49.500;7.764;2023-05-10T04:49:45;6.47;;;5.70;;
7432;SDS011;32233;49.500;7.764;2023-05-10T04:52:12;8.53;;;5.70;;
7432;SDS011;32233;49.500;7.764;2023-05-10T04:54:38;6.13;;;5.13;;
7432;SDS011;32233;49.500;7.764;2023-05-10T04:57:05;5.90;;;5.37;;
7432;SDS011;32233;49.500;7.764;2023-05-10T04:59:31;3.60;;;3.30;;
7432;SDS011;32233;49.500;7.764;2023-05-10T05:01:58;3.73;;;3.43;;
7432;SDS011;32233;49.500;7.764;2023-05-10T05:04:24;5.23;;;3.50;;
7432;SDS011;32233;49.500;7.764;2023-05-10T05:06:51;4.47;;;3.50;;
7432;SDS011;32233;49.500;7.764;2023-05-10T05:09:19;3.87;;;3.57;;
7432;SDS011;32233;49.500;7.764;2023-05-10T05:11:46;3.50;;;3.20;;
7432;SDS011;32233;49.500;7.764;2023-05-10T05:14:12;3.57;;;3.27;;
7432;SDS011;32233;49.500;7.764;2023-05-10T05:16:39;3.20;;;3.00;;
7432;SDS011;32233;49.500;7.764;2023-05-10T05:19:05;3.77;;;3.27;;
7432;SDS011;32233;49.500;7.764;2023-05-10T05:21:32;5.90;;;3.50;;
7432;SDS011;32233;49.500;7.764;2023-05-10T05:23:59;3.67;;;3.37;;
7432;SDS011;32233;49.500;7.764;2023-05-10T05:26:26;3.90;;;3.07;;
7432;SDS011;32233;49.500;7.764;2023-05-10T05:28:52;3.80;;;3.30;;
7432;SDS011;32233;49.500;7.764;2023-05-10T05:31:20;4.30;;;3.57;;
7432;SDS011;32233;49.500;7.764;2023-05-10T05:33:47;3.30;;;3.10;;
7432;SDS011;32233;49.500;7.764;2023-05-10T05:36:14;4.10;;;3.70;;
7432;SDS011;32233;49.500;7.764;2023-05-10T05:38:40;4.43;;;3.47;;
7432;SDS011;32233;49.500;7.764;2023-05-10T05:41:07;3.43;;;3.00;;
7432;SDS011;32233;49.500;7.764;2023-05-10T05:43:33;3.90;;;2.83;;
7432;SDS011;32233;49.500;7.764;2023-05-10T05:46:03;4.00;;;3.10;;
7432;SDS011;32233;49.500;7.764;2023-05-10T05:48:30;3.90;;;3.57;;
7432;SDS011;32233;49.500;7.764;2023-05-10T05:50:57;5.63;;;3.07;;
7432;SDS011;32233;49.500;7.764;2023-05-10T05:53:23;3.33;;;3.07;;
7432;SDS011;32233;49.500;7.764;2023-05-10T05:55:51;3.33;;;2.80;;
7432;SDS011;32233;49.500;7.764;2023-05-10T05:58:19;5.70;;;3.20;;
7432;SDS011;32233;49.500;7.764;2023-05-10T06:00:46;2.90;;;2.70;;
7432;SDS011;32233;49.500;7.764;2023-05-10T06:03:12;3.17;;;2.93;;
7432;SDS011;32233;49.500;7.764;2023-05-10T06:05:39;3.77;;;2.83;;
7432;SDS011;32233;49.500;7.764;2023-05-10T06:08:05;3.70;;;3.10;;
7432;SDS011;32233;49.500;7.764;2023-05-10T06:10:32;2.40;;;2.30;;
7432;SDS011;32233;49.500;7.764;2023-05-10T06:12:58;3.87;;;2.23;;
7432;SDS011;32233;49.500;7.764;2023-05-10T06:15:25;1.77;;;1.63;;
7432;SDS011;32233;49.500;7.764;2023-05-10T06:17:52;1.60;;;1.50;;
7432;SDS011;32233;49.500;7.764;2023-05-10T06:20:18;1.50;;;1.40;;
7432;SDS011;32233;49.500;7.764;2023-05-10T06:22:45;1.73;;;1.27;;
7432;SDS011;32233;49.500;7.764;2023-05-10T06:25:11;1.27;;;1.13;;
7432;SDS011;32233;49.500;7.764;2023-05-10T06:27:38;1.40;;;1.10;;
7432;SDS011;32233;49.500;7.764;2023-05-10T06:30:05;1.70;;;1.07;;
7432;SDS011;32233;49.500;7.764;2023-05-10T06:32:38;0.93;;;0.93;;
7432;SDS011;32233;49.500;7.764;2023-05-10T06:35:05;0.80;;;0.80;;
7432;SDS011;32233;49.500;7.764;2023-05-10T06:37:32;1.57;;;1.20;;
7432;SDS011;32233;49.500;7.764;2023-05-10T06:39:59;4.23;;;1.13;;
7432;SDS011;32233;49.500;7.764;2023-05-10T06:42:26;1.13;;;1.03;;
7432;SDS011;32233;49.500;7.764;2023-05-10T06:44:53;2.97;;;1.07;;
7432;SDS011;32233;49.500;7.764;2023-05-10T06:47:20;1.93;;;1.10;;
7432;SDS011;32233;49.500;7.764;2023-05-10T06:49:46;2.17;;;1.00;;
7432;SDS011;32233;49.500;7.764;2023-05-10T06:52:12;2.43;;;2.23;;
7432;SDS011;32233;49.500;7.764;2023-05-10T06:54:39;1.30;;;1.20;;
7432;SDS011;32233;49.500;7.764;2023-05-10T06:57:05;1.97;;;1.40;;
7432;SDS011;32233;49.500;7.764;2023-05-10T06:59:48;3.13;;;1.30;;
7432;SDS011;32233;49.500;7.764;2023-05-10T07:02:15;1.90;;;1.40;;
7432;SDS011;32233;49.500;7.764;2023-05-10T07:04:42;1.57;;;1.47;;
7432;SDS011;32233;49.500;7.764;2023-05-10T07:07:08;2.07;;;1.60;;
7432;SDS011;32233;49.500;7.764;2023-05-10T07:09:35;2.70;;;1.77;;
7432;SDS011;32233;49.500;7.764;2023-05-10T07:12:01;3.33;;;1.97;;
7432;SDS011;32233;49.500;7.764;2023-05-10T07:14:28;2.10;;;1.87;;
7432;SDS011;32233;49.500;7.764;2023-05-10T07:16:54;2.10;;;2.00;;
7432;SDS011;32233;49.500;7.764;2023-05-10T07:19:21;2.77;;;2.00;;
7432;SDS011;32233;49.500;7.764;2023-05-10T07:21:48;2.87;;;1.90;;
7432;SDS011;32233;49.500;7.764;2023-05-10T07:24:15;2.03;;;1.73;;
7432;SDS011;32233;49.500;7.764;2023-05-10T07:26:41;1.67;;;1.57;;
7432;SDS011;32233;49.500;7.764;2023-05-10T07:29:08;1.77;;;1.53;;
7432;SDS011;32233;49.500;7.764;2023-05-10T07:31:34;2.67;;;1.73;;
7432;SDS011;32233;49.500;7.764;2023-05-10T07:34:01;2.13;;;1.93;;
7432;SDS011;32233;49.500;7.764;2023-05-10T07:36:28;2.27;;;2.10;;
7432;SDS011;32233;49.500;7.764;2023-05-10T07:38:55;2.40;;;2.20;;
7432;SDS011;32233;49.500;7.764;2023-05-10T07:41:22;4.43;;;2.40;;
7432;SDS011;32233;49.500;7.764;2023-05-10T07:43:49;2.50;;;2.30;;
7432;SDS011;32233;49.500;7.764;2023-05-10T07:46:15;2.63;;;2.43;;
7432;SDS011;32233;49.500;7.764;2023-05-10T07:48:42;3.40;;;2.17;;
7432;SDS011;32233;49.500;7.764;2023-05-10T07:51:08;2.43;;;2.10;;
7432;SDS011;32233;49.500;7.764;2023-05-10T07:53:35;5.73;;;2.10;;
7432;SDS011;32233;49.500;7.764;2023-05-10T07:56:19;3.10;;;2.37;;
7432;SDS011;32233;49.500;7.764;2023-05-10T07:58:46;2.40;;;1.90;;
7432;SDS011;32233;49.500;7.764;2023-05-10T08:01:12;2.90;;;1.90;;
7432;SDS011;32233;49.500;7.764;2023-05-10T08:03:39;1.60;;;1.50;;
7432;SDS011;32233;49.500;7.764;2023-05-10T08:06:06;3.63;;;1.50;;
7432;SDS011;32233;49.500;7.764;2023-05-10T08:08:32;1.80;;;1.20;;
7432;SDS011;32233;49.500;7.764;2023-05-10T08:10:59;1.20;;;1.17;;
7432;SDS011;32233;49.500;7.764;2023-05-10T08:13:25;1.43;;;1.33;;
7432;SDS011;32233;49.500;7.764;2023-05-10T08:15:52;1.43;;;1.33;;
7432;SDS011;32233;49.500;7.764;2023-05-10T08:18:19;1.50;;;1.40;;
7432;SDS011;32233;49.500;7.764;2023-05-10T08:20:47;2.03;;;1.43;;
7432;SDS011;32233;49.500;7.764;2023-05-10T08:23:14;2.97;;;1.60;;
7432;SDS011;32233;49.500;7.764;2023-05-10T08:25:41;2.80;;;1.80;;
7432;SDS011;32233;49.500;7.764;2023-05-10T08:28:08;3.13;;;1.70;;
7432;SDS011;32233;49.500;7.764;2023-05-10T08:30:37;1.90;;;1.80;;
7432;SDS011;32233;49.500;7.764;2023-05-10T08:33:03;1.83;;;1.73;;
7432;SDS011;32233;49.500;7.764;2023-05-10T08:35:30;2.00;;;1.83;;
7432;SDS011;32233;49.500;7.764;2023-05-10T08:37:57;2.70;;;1.97;;
7432;SDS011;32233;49.500;7.764;2023-05-10T08:40:23;2.13;;;2.00;;
7432;SDS011;32233;49.500;7.764;2023-05-10T08:42:51;4.30;;;2.70;;
7432;SDS011;32233;49.500;7.764;2023-05-10T08:45:24;3.30;;;2.50;;
7432;SDS011;32233;49.500;7.764;2023-05-10T08:47:57;2.17;;;2.07;;
7432;SDS011;32233;49.500;7.764;2023-05-10T08:50:28;2.00;;;1.90;;
7432;SDS011;32233;49.500;7.764;2023-05-10T08:52:57;2.33;;;2.13;;
7432;SDS011;32233;49.500;7.764;2023-05-10T08:55:26;1.93;;;1.80;;
7432;SDS011;32233;49.500;7.764;2023-05-10T08:57:53;2.30;;;1.90;;
7432;SDS011;32233;49.500;7.764;2023-05-10T09:00:21;3.20;;;1.80;;
7432;SDS011;32233;49.500;7.764;2023-05-10T09:02:49;2.23;;;1.80;;
7432;SDS011;32233;49.500;7.764;2023-05-10T09:05:16;1.77;;;1.63;;
7432;SDS011;32233;49.500;7.764;2023-05-10T09:07:44;2.03;;;1.50;;
7432;SDS011;32233;49.500;7.764;2023-05-10T09:10:10;2.20;;;1.30;;
7432;SDS011;32233;49.500;7.764;2023-05-10T09:12:37;1.10;;;1.10;;
7432;SDS011;32233;49.500;7.764;2023-05-10T09:15:05;1.40;;;1.30;;
7432;SDS011;32233;49.500;7.764;2023-05-10T09:17:33;1.33;;;1.03;;
7432;SDS011;32233;49.500;7.764;2023-05-10T09:20:01;1.40;;;1.10;;
7432;SDS011;32233;49.500;7.764;2023-05-10T09:22:30;2.27;;;1.13;;
7432;SDS011;32233;49.500;7.764;2023-05-10T09:25:04;1.30;;;1.00;;
7432;SDS011;32233;49.500;7.764;2023-05-10T09:27:38;1.53;;;0.93;;
7432;SDS011;32233;49.500;7.764;2023-05-10T09:30:05;1.53;;;1.00;;
7432;SDS011;32233;49.500;7.764;2023-05-10T09:35:09;1.07;;;1.00;;
7432;SDS011;32233;49.500;7.764;2023-05-10T09:37:40;1.10;;;0.90;;
7432;SDS011;32233;49.500;7.764;2023-05-10T09:40:12;1.93;;;1.00;;
7432;SDS011;32233;49.500;7.764;2023-05-10T09:42:51;1.63;;;1.00;;
7432;SDS011;32233;49.500;7.764;2023-05-10T09:45:22;1.70;;;0.90;;
7432;SDS011;32233;49.500;7.764;2023-05-10T09:47:49;1.63;;;0.90;;
7432;SDS011;32233;49.500;7.764;2023-05-10T09:50:16;1.57;;;0.90;;
7432;SDS011;32233;49.500;7.764;2023-05-10T09:55:17;1.00;;;1.00;;
7432;SDS011;32233;49.500;7.764;2023-05-10T09:57:46;4.23;;;1.03;;
7432;SDS011;32233;49.500;7.764;2023-05-10T10:00:18;0.70;;;0.70;;
7432;SDS011;32233;49.500;7.764;2023-05-10T10:02:46;2.07;;;0.77;;
7432;SDS011;32233;49.500;7.764;2023-05-10T10:05:14;1.10;;;0.70;;
7432;SDS011;32233;49.500;7.764;2023-05-10T10:10:35;3.43;;;0.83;;
7432;SDS011;32233;49.500;7.764;2023-05-10T10:13:02;0.97;;;0.97;;
7432;SDS011;32233;49.500;7.764;2023-05-10T10:15:29;1.33;;;1.17;;
7432;SDS011;32233;49.500;7.764;2023-05-10T10:17:55;2.60;;;1.17;;
7432;SDS011;32233;49.500;7.764;2023-05-10T10:20:22;2.10;;;1.10;;
7432;SDS011;32233;49.500;7.764;2023-05-10T10:22:49;2.93;;;0.70;;
7432;SDS011;32233;49.500;7.764;2023-05-10T10:25:16;2.57;;;1.40;;
7432;SDS011;32233;49.500;7.764;2023-05-10T10:35:30;1.50;;;1.00;;
7432;SDS011;32233;49.500;7.764;2023-05-10T10:37:58;1.97;;;0.90;;
7432;SDS011;32233;49.500;7.764;2023-05-10T10:42:54;0.90;;;0.80;;
7432;SDS011;32233;49.500;7.764;2023-05-10T10:45:21;2.57;;;1.17;;
7432;SDS011;32233;49.500;7.764;2023-05-10T10:47:48;1.67;;;0.87;;
7432;SDS011;32233;49.500;7.764;2023-05-10T10:50:19;3.37;;;0.93;;
7432;SDS011;32233;49.500;7.764;2023-05-10T10:52:45;4.23;;;1.53;;
7432;SDS011;32233;49.500;7.764;2023-05-10T10:57:51;1.53;;;0.90;;
7432;SDS011;32233;49.500;7.764;2023-05-10T11:05:34;3.93;;;0.80;;
7432;SDS011;32233;49.500;7.764;2023-05-10T11:08:07;2.03;;;0.80;;
7432;SDS011;32233;49.500;7.764;2023-05-10T11:10:48;1.00;;;0.87;;
7432;SDS011;32233;49.500;7.764;2023-05-10T11:13:26;2.00;;;0.80;;
7432;SDS011;32233;49.500;7.764;2023-05-10T11:15:58;1.53;;;0.80;;
7432;SDS011;32233;49.500;7.764;2023-05-10T11:18:26;2.80;;;1.30;;
7432;SDS011;32233;49.500;7.764;2023-05-10T11:20:58;4.57;;;1.00;;
7432;SDS011;32233;49.500;7.764;2023-05-10T11:23:30;3.00;;;0.97;;
7432;SDS011;32233;49.500;7.764;2023-05-10T11:26:01;2.17;;;0.90;;
7432;SDS011;32233;49.500;7.764;2023-05-10T11:28:27;1.37;;;0.90;;
7432;SDS011;32233;49.500;7.764;2023-05-10T11:30:54;1.17;;;0.90;;
7432;SDS011;32233;49.500;7.764;2023-05-10T11:33:22;2.70;;;0.93;;
7432;SDS011;32233;49.500;7.764;2023-05-10T11:35:48;3.17;;;0.90;;
7432;SDS011;32233;49.500;7.764;2023-05-10T11:38:15;1.37;;;1.00;;
7432;SDS011;32233;49.500;7.764;2023-05-10T11:40:41;4.77;;;0.77;;
7432;SDS011;32233;49.500;7.764;2023-05-10T11:43:09;1.10;;;0.83;;
7432;SDS011;32233;49.500;7.764;2023-05-10T11:45:36;1.27;;;0.87;;
7432;SDS011;32233;49.500;7.764;2023-05-10T11:48:03;1.60;;;0.70;;
7432;SDS011;32233;49.500;7.764;2023-05-10T11:50:30;1.30;;;0.53;;
7432;SDS011;32233;49.500;7.764;2023-05-10T11:52:57;1.07;;;0.40;;
7432;SDS011;32233;49.500;7.764;2023-05-10T11:55:24;2.13;;;0.60;;
7432;SDS011;32233;49.500;7.764;2023-05-10T11:57:51;1.43;;;0.43;;
7432;SDS011;32233;49.500;7.764;2023-05-10T12:00:19;0.70;;;0.53;;
7432;SDS011;32233;49.500;7.764;2023-05-10T12:02:46;2.10;;;0.60;;
7432;SDS011;32233;49.500;7.764;2023-05-10T12:05:13;0.60;;;0.60;;
7432;SDS011;32233;49.500;7.764;2023-05-10T12:07:40;1.33;;;0.70;;
7432;SDS011;32233;49.500;7.764;2023-05-10T12:10:08;0.53;;;0.40;;
7432;SDS011;32233;49.500;7.764;2023-05-10T12:12:45;1.10;;;0.70;;
7432;SDS011;32233;49.500;7.764;2023-05-10T12:15:20;0.67;;;0.63;;
7432;SDS011;32233;49.500;7.764;2023-05-10T12:17:48;1.23;;;0.70;;
7432;SDS011;32233;49.500;7.764;2023-05-10T12:20:16;0.80;;;0.40;;
7432;SDS011;32233;49.500;7.764;2023-05-10T12:22:55;1.20;;;0.80;;
7432;SDS011;32233;49.500;7.764;2023-05-10T12:25:29;0.70;;;0.60;;
7432;SDS011;32233;49.500;7.764;2023-05-10T12:27:57;0.50;;;0.50;;
7432;SDS011;32233;49.500;7.764;2023-05-10T12:30:27;1.10;;;0.40;;
7432;SDS011;32233;49.500;7.764;2023-05-10T12:33:02;1.93;;;0.50;;
7432;SDS011;32233;49.500;7.764;2023-05-10T12:35:45;0.60;;;0.60;;
7432;SDS011;32233;49.500;7.764;2023-05-10T12:40:57;1.63;;;0.60;;
7432;SDS011;32233;49.500;7.764;2023-05-10T12:43:27;2.30;;;0.50;;
7432;SDS011;32233;49.500;7.764;2023-05-10T12:45:54;1.10;;;0.40;;
7432;SDS011;32233;49.500;7.764;2023-05-10T12:48:21;1.50;;;0.70;;
7432;SDS011;32233;49.500;7.764;2023-05-10T12:50:49;3.50;;;0.60;;
7432;SDS011;32233;49.500;7.764;2023-05-10T12:53:15;1.87;;;0.57;;
7432;SDS011;32233;49.500;7.764;2023-05-10T12:55:42;2.47;;;0.60;;
7432;SDS011;32233;49.500;7.764;2023-05-10T12:58:10;0.90;;;0.80;;
7432;SDS011;32233;49.500;7.764;2023-05-10T13:00:43;0.70;;;0.40;;
7432;SDS011;32233;49.500;7.764;2023-05-10T13:03:09;0.73;;;0.50;;
7432;SDS011;32233;49.500;7.764;2023-05-10T13:05:36;2.60;;;0.60;;
7432;SDS011;32233;49.500;7.764;2023-05-10T13:08:04;1.57;;;0.43;;
7432;SDS011;32233;49.500;7.764;2023-05-10T13:10:31;3.30;;;0.60;;
7432;SDS011;32233;49.500;7.764;2023-05-10T13:12:58;2.03;;;0.70;;
7432;SDS011;32233;49.500;7.764;2023-05-10T13:15:25;2.23;;;0.50;;
7432;SDS011;32233;49.500;7.764;2023-05-10T13:17:52;1.17;;;0.50;;
7432;SDS011;32233;49.500;7.764;2023-05-10T13:20:20;2.93;;;0.60;;
7432;SDS011;32233;49.500;7.764;2023-05-10T13:22:47;1.10;;;0.50;;
7432;SDS011;32233;49.500;7.764;2023-05-10T13:25:15;1.03;;;0.40;;
7432;SDS011;32233;49.500;7.764;2023-05-10T13:27:42;1.23;;;0.50;;
7432;SDS011;32233;49.500;7.764;2023-05-10T13:30:08;0.40;;;0.40;;
7432;SDS011;32233;49.500;7.764;2023-05-10T13:32:37;0.40;;;0.40;;
7432;SDS011;32233;49.500;7.764;2023-05-10T13:35:04;3.47;;;0.40;;
7432;SDS011;32233;49.500;7.764;2023-05-10T13:37:31;0.60;;;0.60;;
7432;SDS011;32233;49.500;7.764;2023-05-10T13:40:01;0.90;;;0.50;;
7432;SDS011;32233;49.500;7.764;2023-05-10T13:42:28;1.93;;;0.40;;
7432;SDS011;32233;49.500;7.764;2023-05-10T13:44:54;0.87;;;0.53;;
7432;SDS011;32233;49.500;7.764;2023-05-10T13:47:21;0.70;;;0.50;;
7432;SDS011;32233;49.500;7.764;2023-05-10T13:49:48;1.43;;;0.50;;
7432;SDS011;32233;49.500;7.764;2023-05-10T13:52:15;1.33;;;0.40;;
7432;SDS011;32233;49.500;7.764;2023-05-10T13:54:41;0.63;;;0.50;;
7432;SDS011;32233;49.500;7.764;2023-05-10T13:57:08;2.00;;;0.53;;
7432;SDS011;32233;49.500;7.764;2023-05-10T13:59:34;1.97;;;0.60;;
7432;SDS011;32233;49.500;7.764;2023-05-10T14:02:01;0.50;;;0.50;;
7432;SDS011;32233;49.500;7.764;2023-05-10T14:04:30;0.60;;;0.40;;
7432;SDS011;32233;49.500;7.764;2023-05-10T14:06:57;0.90;;;0.40;;
7432;SDS011;32233;49.500;7.764;2023-05-10T14:09:27;0.97;;;0.40;;
7432;SDS011;32233;49.500;7.764;2023-05-10T14:11:54;0.50;;;0.40;;
7432;SDS011;32233;49.500;7.764;2023-05-10T14:14:20;0.63;;;0.40;;
7432;SDS011;32233;49.500;7.764;2023-05-10T14:16:46;1.23;;;0.40;;
7432;SDS011;32233;49.500;7.764;2023-05-10T14:19:13;0.83;;;0.40;;
7432;SDS011;32233;49.500;7.764;2023-05-10T14:21:39;0.60;;;0.43;;
7432;SDS011;32233;49.500;7.764;2023-05-10T14:24:06;0.40;;;0.40;;
7432;SDS011;32233;49.500;7.764;2023-05-10T14:26:33;0.93;;;0.50;;
7432;SDS011;32233;49.500;7.764;2023-05-10T14:29:00;0.43;;;0.40;;
7432;SDS011;32233;49.500;7.764;2023-05-10T14:31:27;1.70;;;0.50;;
7432;SDS011;32233;49.500;7.764;2023-05-10T14:33:56;1.23;;;0.40;;
7432;SDS011;32233;49.500;7.764;2023-05-10T14:36:23;2.83;;;0.50;;
7432;SDS011;32233;49.500;7.764;2023-05-10T14:38:50;2.67;;;0.40;;
7432;SDS011;32233;49.500;7.764;2023-05-10T14:41:17;2.27;;;0.40;;
7432;SDS011;32233;49.500;7.764;2023-05-10T14:43:43;0.80;;;0.40;;
7432;SDS011;32233;49.500;7.764;2023-05-10T14:46:10;2.40;;;0.70;;
7432;SDS011;32233;49.500;7.764;2023-05-10T14:48:37;1.10;;;0.40;;
7432;SDS011;32233;49.500;7.764;2023-05-10T14:51:03;1.13;;;0.30;;
7432;SDS011;32233;49.500;7.764;2023-05-10T14:53:30;1.63;;;0.40;;
7432;SDS011;32233;49.500;7.764;2023-05-10T14:55:56;1.27;;;0.50;;
7432;SDS011;32233;49.500;7.764;2023-05-10T14:58:23;1.27;;;0.40;;
7432;SDS011;32233;49.500;7.764;2023-05-10T15:00:50;2.30;;;0.50;;
7432;SDS011;32233;49.500;7.764;2023-05-10T15:03:17;1.70;;;0.40;;
7432;SDS011;32233;49.500;7.764;2023-05-10T15:05:44;1.43;;;0.40;;
7432;SDS011;32233;49.500;7.764;2023-05-10T15:08:14;0.40;;;0.40;;
7432;SDS011;32233;49.500;7.764;2023-05-10T15:10:40;0.73;;;0.50;;
7432;SDS011;32233;49.500;7.764;2023-05-10T15:13:07;0.60;;;0.40;;
7432;SDS011;32233;49.500;7.764;2023-05-10T15:24:41;1.47;;;0.50;;
7432;SDS011;32233;49.500;7.764;2023-05-10T15:27:11;0.87;;;0.37;;
7432;SDS011;32233;49.500;7.764;2023-05-10T15:29:37;1.23;;;0.40;;
7432;SDS011;32233;49.500;7.764;2023-05-10T15:32:04;0.40;;;0.40;;
7432;SDS011;32233;49.500;7.764;2023-05-10T15:34:31;0.70;;;0.53;;
7432;SDS011;32233;49.500;7.764;2023-05-10T15:37:00;0.67;;;0.40;;
7432;SDS011;32233;49.500;7.764;2023-05-10T15:39:27;0.53;;;0.40;;
7432;SDS011;32233;49.500;7.764;2023-05-10T15:41:53;0.73;;;0.40;;
7432;SDS011;32233;49.500;7.764;2023-05-10T15:44:20;0.50;;;0.50;;
7432;SDS011;32233;49.500;7.764;2023-05-10T15:46:47;1.90;;;0.50;;
7432;SDS011;32233;49.500;7.764;2023-05-10T15:49:13;0.93;;;0.80;;
7432;SDS011;32233;49.500;7.764;2023-05-10T15:51:40;1.10;;;0.70;;
7432;SDS011;32233;49.500;7.764;2023-05-10T15:54:06;0.73;;;0.50;;